Latest Weather Observations for Lucas Heights (ANSTO)

IDN60901

Issued at 11:01 am EST Tuesday 26 May 2020 (issued every 10 minutes, with the page automatically refreshed every 10 minutes)

About weather observations | Map of Sydney area stations | Latest observations for Sydney area | Other Formats
Station Details ID: 066023 Name: LUCAS HEIGHTS (ANSTO) Lat: -34.05 Lon: 150.98 Height: 140.0 m
Data from the previous 72 hours. | See also: Recent months for locations in New South Wales
Date/Time
EST
Temp
°C
App
Temp
°C
Dew
Point
°C
Rel
Hum
%
Delta-T
°C
Wind Press
QNH
hPa
Press
MSL
hPa
Rain since
9am
mm
Dir  Spd
km/h
Gust
km/h
Spd
kts
Gust
kts
26/10:45am 14.7 12.1 13.1 90 0.9 SSE 19 24 10 13 1023.3 - 0.9
26/10:30am 14.4 10.0 12.8 90 0.9 SSE 28 35 15 19 1023.2 - 0.9
26/10:15am 14.4 11.1 12.8 90 0.9 SSE 22 35 12 19 1023.1 - 0.9
26/10:00am 14.7 11.8 12.9 89 1.0 SSE 20 26 11 14 1023.1 - 0.6
26/09:45am 15.0 12.3 13.4 90 0.9 SSE 20 28 11 15 1023.1 - 0.2
26/09:30am 14.4 11.5 12.8 90 0.9 SSE 20 28 11 15 1023.0 - 0.2
26/09:15am 14.5 11.8 12.9 90 0.9 SSE 19 28 10 15 1023.0 - 0.2
26/09:00am 14.0 11.0 12.5 91 0.8 SSE 20 28 11 15 1022.8 - 5.7
26/08:45am 13.8 11.3 12.3 91 0.8 SSE 17 22 9 12 1022.7 - 5.7
26/08:30am 13.7 10.6 12.2 91 0.8 S 20 30 11 16 1022.6 - 5.7
26/08:15am 13.3 10.3 11.8 91 0.8 S 19 28 10 15 1022.6 - 5.7
26/08:00am 13.1 10.3 11.5 90 0.9 SSE 17 22 9 12 1022.4 - 5.7
26/07:45am 13.0 10.2 11.4 90 0.9 S 17 26 9 14 1022.3 - 5.7
26/07:30am 12.9 9.7 11.2 89 0.9 S 19 24 10 13 1022.3 - 5.5
26/07:15am 12.9 10.0 11.1 89 1.0 S 17 20 9 11 1022.1 - 5.5
26/07:00am 13.1 9.9 11.2 88 1.0 S 19 26 10 14 1022.1 - 5.5
26/06:45am 13.0 9.8 11.2 89 1.0 S 19 28 10 15 1021.9 - 5.5
26/06:30am 12.8 9.6 11.1 89 0.9 S 19 30 10 16 1021.7 - 5.5
26/06:15am 12.8 9.0 11.0 89 1.0 S 22 33 12 18 1021.6 - 5.5
26/06:00am 12.8 8.5 10.8 88 1.1 S 24 33 13 18 1021.4 - 5.5
26/05:45am 12.9 8.6 10.9 88 1.1 S 24 32 13 17 1021.5 - 5.3
26/05:30am 12.8 8.2 10.9 88 1.0 S 26 37 14 20 1021.4 - 5.3
26/05:15am 12.9 7.9 11.0 88 1.0 S 28 39 15 21 1021.2 - 5.3
26/05:00am 12.9 7.9 11.1 89 1.0 S 28 37 15 20 1021.0 - 5.3
26/04:45am 12.8 7.5 11.1 89 0.9 S 30 41 16 22 1021.0 - 5.3
26/04:30am 12.7 7.3 10.9 89 0.9 S 30 39 16 21 1020.8 - 5.3
26/04:15am 12.7 7.3 10.8 88 1.0 S 30 39 16 21 1020.8 - 5.3
26/04:00am 13.1 7.7 11.0 87 1.1 S 30 37 16 20 1021.0 - 5.3
26/03:45am 13.3 7.4 11.2 87 1.1 S 33 43 18 23 1021.0 - 5.1
26/03:30am 13.1 7.8 11.2 88 1.0 S 30 43 16 23 1020.9 - 5.1
26/03:15am 12.9 7.9 11.0 88 1.0 S 28 37 15 20 1020.8 - 5.1
26/03:00am 12.8 6.5 11.0 89 1.0 S 35 48 19 26 1020.8 - 5.1
26/02:45am 12.7 7.3 10.9 89 0.9 S 30 41 16 22 1020.9 - 5.1
26/02:30am 12.5 7.5 10.8 89 0.9 S 28 39 15 21 1021.0 - 5.1
26/02:15am 12.4 6.5 10.6 89 0.9 S 32 43 17 23 1021.0 - 5.1
26/02:00am 12.6 5.8 10.7 88 1.0 S 37 46 20 25 1021.0 - 4.9
26/01:45am 12.5 6.4 10.6 88 1.0 S 33 46 18 25 1021.0 - 4.9
26/01:30am 12.4 5.6 10.6 89 0.9 S 37 46 20 25 1020.9 - 4.9
26/01:15am 12.3 5.8 10.5 89 0.9 S 35 46 19 25 1021.0 - 4.9
26/01:00am 12.2 6.1 10.4 89 0.9 S 33 48 18 26 1021.1 - 4.9
26/12:45am 12.1 6.0 10.4 89 0.9 S 33 44 18 24 1021.1 - 4.9
26/12:30am 12.3 5.9 10.6 89 0.9 S 35 50 19 27 1021.2 - 4.9
26/12:15am 12.4 7.0 10.8 90 0.8 S 30 41 16 22 1021.2 - 4.9
26/12:00am 12.2 6.3 10.6 90 0.8 S 32 39 17 21 1021.2 - 4.9
 
Date/Time
EST
Temp
°C
App
Temp
°C
Dew
Point
°C
Rel
Hum
%
Delta-T
°C
Wind Press
QNH
hPa
Press
MSL
hPa
Rain since
9am
mm
Dir  Spd
km/h
Gust
km/h
Spd
kts
Gust
kts
25/11:45pm 12.1 5.3 10.5 90 0.8 S 37 54 20 29 1021.1 - 4.8
25/11:30pm 12.3 5.5 10.6 89 0.9 S 37 52 20 28 1021.0 - 4.6
25/11:15pm 12.4 5.6 10.8 90 0.8 S 37 52 20 28 1021.0 - 4.4
25/11:00pm 12.3 6.3 10.8 90 0.8 S 33 43 18 23 1020.9 - 4.2
25/10:45pm 12.3 6.5 10.8 90 0.8 S 32 44 17 24 1020.8 - 4.2
25/10:30pm 12.3 6.8 10.7 90 0.8 S 30 43 16 23 1020.9 - 4.0
25/10:15pm 12.3 6.3 10.8 90 0.8 S 33 44 18 24 1020.8 - 3.8
25/10:00pm 12.5 6.5 10.9 90 0.8 S 33 43 18 23 1020.6 - 3.6
25/09:45pm 12.6 6.7 11.0 90 0.8 S 33 46 18 25 1020.4 - 3.4
25/09:30pm 12.6 5.5 11.0 90 0.8 S 39 57 21 31 1020.4 - 3.4
25/09:15pm 12.6 7.2 11.0 90 0.8 S 30 50 16 27 1020.4 - 3.0
25/09:00pm 12.6 6.8 10.9 89 0.9 S 32 46 17 25 1020.2 - 2.7
25/08:45pm 12.6 5.9 10.9 89 0.9 S 37 50 20 27 1020.0 - 2.5
25/08:30pm 12.6 5.1 10.9 89 0.9 S 41 56 22 30 1019.8 - 1.9
25/08:15pm 12.7 5.2 10.9 89 0.9 S 41 54 22 29 1019.8 - 1.5
25/08:00pm 12.6 5.5 10.8 89 0.9 S 39 56 21 30 1019.7 - 1.3
25/07:45pm 12.7 5.2 10.8 88 1.0 S 41 59 22 32 1019.5 - 1.1
25/07:30pm 12.7 5.5 10.7 88 1.0 S 39 46 21 25 1019.3 - 0.9
25/07:15pm 12.7 5.5 10.7 88 1.0 S 39 54 21 29 1019.2 - 0.8
25/07:00pm 12.7 5.5 10.7 88 1.0 S 39 54 21 29 1019.1 - 0.8
25/06:45pm 12.8 5.6 10.6 86 1.2 S 39 52 21 28 1018.9 - 0.6
25/06:30pm 13.0 5.1 10.8 86 1.2 S 43 56 23 30 1018.9 - 0.4
25/06:15pm 12.9 4.8 10.7 86 1.2 S 44 56 24 30 1018.7 - 0.4
25/06:00pm 12.9 4.9 10.6 86 1.2 S 43 63 23 34 1018.4 - 0.2
25/05:45pm 13.1 5.1 10.6 85 1.3 S 43 57 23 31 1018.4 - 0.2
25/05:30pm 13.2 5.1 10.6 84 1.4 S 44 56 24 30 1018.2 - 0.0
25/05:15pm 13.3 5.3 10.5 83 1.5 S 43 56 23 30 1018.1 - 0.0
25/05:00pm 13.4 4.8 10.4 82 1.6 S 46 59 25 32 1018.0 - 0.0
25/04:45pm 13.6 5.4 10.3 80 1.7 S 44 57 24 31 1017.8 - 0.0
25/04:30pm 14.2 6.5 10.2 77 2.1 S 41 54 22 29 1017.8 - 0.0
25/04:15pm 14.5 7.6 10.2 75 2.3 S 37 59 20 32 1017.6 - 0.0
25/04:00pm 14.6 6.5 10.1 74 2.4 S 43 59 23 32 1017.5 - 0.0
25/03:45pm 14.7 6.6 10.0 73 2.5 S 43 61 23 33 1017.5 - 0.0
25/03:30pm 14.7 7.0 10.0 73 2.5 S 41 63 22 34 1017.4 - 0.0
25/03:15pm 14.9 8.3 10.0 72 2.6 S 35 57 19 31 1017.3 - 0.0
25/03:00pm 15.1 8.1 10.1 72 2.6 S 37 56 20 30 1017.1 - 0.0
25/02:45pm 15.2 7.9 10.1 71 2.7 S 39 63 21 34 1017.1 - 0.0
25/02:30pm 15.4 8.8 10.1 70 2.8 S 35 52 19 28 1017.1 - 0.0
25/02:15pm 15.4 9.2 10.0 70 2.8 S 33 44 18 24 1017.1 - 0.0
25/02:00pm 15.4 8.8 10.0 70 2.8 S 35 46 19 25 1017.1 - 0.0
25/01:45pm 15.3 7.5 9.9 70 2.8 S 41 63 22 34 1017.0 - 0.0
25/01:30pm 15.6 8.2 9.9 69 3.0 S 39 56 21 30 1016.9 - 0.0
25/01:15pm 15.7 7.4 10.0 69 3.0 S 44 57 24 31 1016.8 - 0.0
25/01:00pm 15.7 7.4 9.9 68 3.0 S 44 69 24 37 1016.8 - 0.0
25/12:45pm 15.7 6.6 10.0 69 3.0 S 48 67 26 36 1016.8 - 0.0
25/12:30pm 15.4 6.7 9.9 70 2.9 S 46 70 25 38 1017.1 - 0.0
25/12:15pm 15.4 7.3 10.0 70 2.8 S 43 56 23 30 1017.1 - 0.0
25/12:00pm 15.2 5.3 9.9 70 2.8 S 52 65 28 35 1017.1 - 0.0
25/11:45am 15.4 5.2 10.0 70 2.8 S 54 65 29 35 1017.2 - 0.0
25/11:30am 15.3 6.6 10.1 71 2.7 S 46 69 25 37 1017.3 - 0.0
25/11:15am 15.1 6.0 10.0 71 2.7 S 48 69 26 37 1017.4 - 0.0
25/11:00am 15.1 7.4 10.2 72 2.6 S 41 67 22 36 1017.4 - 0.0
25/10:45am 15.1 7.0 10.0 71 2.7 S 43 57 23 31 1017.5 - 0.0
25/10:30am 15.5 9.4 10.4 71 2.7 S 33 50 18 27 1017.6 - 0.0
25/10:15am 14.6 7.7 10.2 75 2.3 S 37 54 20 29 1017.7 - 0.0
25/10:00am 14.3 7.3 9.9 75 2.3 S 37 46 20 25 1017.8 - 0.0
25/09:45am 14.1 6.6 9.6 74 2.3 S 39 54 21 29 1017.6 - 0.0
25/09:30am 14.0 6.5 9.4 74 2.4 S 39 46 21 25 1017.6 - 0.0
25/09:15am 13.7 6.5 9.2 74 2.3 S 37 48 20 26 1017.6 - 0.0
25/09:00am 13.6 6.7 9.0 74 2.3 S 35 56 19 30 1017.5 - 0.0
25/08:45am 13.5 6.6 8.8 73 2.4 S 35 50 19 27 1017.4 - 0.0
25/08:30am 13.4 6.1 8.6 73 2.4 S 37 46 20 25 1017.1 - 0.0
25/08:15am 13.3 6.9 8.5 72 2.4 S 32 41 17 22 1017.1 - 0.0
25/08:00am 13.1 7.0 8.3 72 2.4 S 30 41 16 22 1017.1 - 0.0
25/07:45am 13.0 6.3 8.1 72 2.4 S 33 48 18 26 1017.1 - 0.0
25/07:30am 12.9 6.4 8.1 72 2.4 S 32 43 17 23 1017.0 - 0.0
25/07:15am 13.0 6.8 8.0 71 2.5 S 30 43 16 23 1016.8 - 0.0
25/07:00am 12.9 6.2 8.1 72 2.4 S 33 43 18 23 1016.6 - 0.0
25/06:45am 12.8 6.3 8.1 73 2.3 S 32 50 17 27 1016.4 - 0.0
25/06:30am 12.2 6.0 8.0 75 2.1 SSW 30 48 16 26 1016.3 - 0.0
25/06:15am 11.5 7.1 7.4 76 2.0 SSW 20 33 11 18 1016.3 - 0.0
25/06:00am 10.8 6.8 6.8 76 1.9 SW 17 28 9 15 1016.2 - 0.0
25/05:45am 10.9 6.9 6.7 75 2.0 SW 17 20 9 11 1016.0 - 0.0
25/05:30am 11.8 7.5 7.0 72 2.3 SSW 19 32 10 17 1015.8 - 0.0
25/05:15am 12.0 7.2 7.2 72 2.3 SSW 22 32 12 17 1015.7 - 0.0
25/05:00am 11.9 5.9 7.2 73 2.3 S 28 39 15 21 1015.4 - 0.0
25/04:45am 12.0 6.0 7.2 72 2.3 S 28 39 15 21 1015.2 - 0.0
25/04:30am 12.1 5.2 7.3 72 2.3 S 33 44 18 24 1015.2 - 0.0
25/04:15am 12.0 5.7 7.3 73 2.3 S 30 41 16 22 1015.3 - 0.0
25/04:00am 11.7 6.1 7.1 73 2.2 S 26 37 14 20 1015.4 - 0.0
25/03:45am 11.5 6.9 6.7 72 2.3 SSW 20 28 11 15 1015.4 - 0.0
25/03:30am 11.9 7.6 6.8 71 2.4 SW 19 28 10 15 1015.4 - 0.0
25/03:15am 12.1 7.2 7.0 71 2.5 SSW 22 32 12 17 1015.4 - 0.0
25/03:00am 12.0 7.1 7.0 71 2.4 SSW 22 33 12 18 1015.5 - 0.0
25/02:45am 12.0 6.4 7.0 71 2.4 SSW 26 37 14 20 1015.6 - 0.0
25/02:30am 12.2 6.2 7.1 71 2.5 S 28 41 15 22 1015.6 - 0.0
25/02:15am 12.3 6.7 7.1 70 2.5 SSW 26 41 14 22 1015.6 - 0.0
25/02:00am 12.6 6.3 7.2 69 2.6 S 30 43 16 23 1015.7 - 0.0
25/01:45am 12.7 6.8 7.4 70 2.6 S 28 39 15 21 1015.7 - 0.0
25/01:30am 12.6 6.7 7.3 70 2.6 S 28 43 15 23 1015.8 - 0.0
25/01:15am 12.5 7.3 7.3 70 2.5 S 24 33 13 18 1015.7 - 0.0
25/01:00am 12.4 6.8 7.2 70 2.5 S 26 37 14 20 1015.8 - 0.0
25/12:45am 12.6 6.7 7.3 70 2.6 S 28 43 15 23 1015.8 - 0.0
25/12:30am 12.6 6.3 7.3 70 2.6 S 30 37 16 20 1015.8 - 0.0
25/12:15am 12.6 7.0 7.2 69 2.6 S 26 41 14 22 1015.9 - 0.0
25/12:00am 12.5 6.5 7.1 69 2.6 S 28 39 15 21 1015.9 - 0.0
 
Date/Time
EST
Temp
°C
App
Temp
°C
Dew
Point
°C
Rel
Hum
%
Delta-T
°C
Wind Press
QNH
hPa
Press
MSL
hPa
Rain since
9am
mm
Dir  Spd
km/h
Gust
km/h
Spd
kts
Gust
kts
24/11:45pm 12.3 6.3 6.9 69 2.6 S 28 35 15 19 1016.0 - 0.0
24/11:30pm 12.1 7.1 6.5 68 2.7 SSW 22 41 12 22 1015.9 - 0.0
24/11:15pm 12.1 7.5 6.3 67 2.8 SSW 20 32 11 17 1015.9 - 0.0
24/11:00pm 12.0 7.3 6.2 67 2.8 SSW 20 28 11 15 1016.0 - 0.0
24/10:45pm 11.9 7.4 6.2 68 2.7 SSW 19 28 10 15 1016.0 - 0.0
24/10:30pm 12.1 7.1 6.3 67 2.8 SSW 22 32 12 17 1015.9 - 0.0
24/10:15pm 12.2 6.5 6.6 68 2.7 SSW 26 33 14 18 1015.7 - 0.0
24/10:00pm 12.1 7.1 6.5 68 2.7 SSW 22 26 12 14 1015.8 - 0.0
24/09:45pm 12.5 7.2 6.6 67 2.8 SSW 24 35 13 19 1015.8 - 0.0
24/09:30pm 12.4 7.4 6.3 66 2.9 SSW 22 32 12 17 1015.9 - 0.0
24/09:15pm 12.0 7.2 5.8 66 2.9 SSW 20 30 11 16 1015.9 - 0.0
24/09:00pm 11.8 6.6 5.5 65 2.9 SSW 22 32 12 17 1015.9 - 0.0
24/08:45pm 11.7 6.8 5.2 64 3.0 SSW 20 22 11 12 1015.7 - 0.0
24/08:30pm 12.1 7.2 5.3 63 3.2 SSW 20 26 11 14 1015.5 - 0.0
24/08:15pm 12.0 6.3 5.1 62 3.2 SSW 24 32 13 17 1015.5 - 0.0
24/08:00pm 12.0 6.3 4.7 61 3.4 SSW 24 28 13 15 1015.4 - 0.0
24/07:45pm 12.1 6.0 4.6 60 3.4 SW 26 30 14 16 1015.2 - 0.0
24/07:30pm 12.6 7.6 4.7 58 3.6 SW 20 22 11 12 1015.2 - 0.0
24/07:15pm 13.2 7.5 4.9 57 3.9 SSW 24 32 13 17 1015.1 - 0.0
24/07:00pm 13.3 6.9 5.1 57 3.8 SSW 28 37 15 20 1015.0 - 0.0
24/06:45pm 13.4 7.4 5.3 58 3.8 SSW 26 41 14 22 1014.9 - 0.0
24/06:30pm 13.6 6.9 5.4 57 3.9 SSW 30 39 16 21 1014.7 - 0.0
24/06:15pm 13.8 7.4 5.4 57 4.0 SSW 28 37 15 20 1014.6 - 0.0
24/06:00pm 13.8 7.4 5.2 56 4.1 SSW 28 33 15 18 1014.5 - 0.0
24/05:45pm 13.8 7.0 4.9 55 4.2 SSW 30 43 16 23 1014.3 - 0.0
24/05:30pm 13.8 6.4 5.0 55 4.1 S 33 44 18 24 1014.0 - 0.0
24/05:15pm 14.0 6.0 5.7 57 4.0 S 37 50 20 27 1013.8 - 0.0
24/05:00pm 14.2 7.1 6.6 60 3.7 S 33 54 18 29 1013.5 - 0.0
24/04:45pm 14.4 7.6 6.7 60 3.8 S 32 43 17 23 1013.2 - 0.0
24/04:30pm 14.5 7.1 6.7 59 3.8 S 35 50 19 27 1013.0 - 0.0
24/04:15pm 14.8 8.0 6.9 59 3.9 S 32 41 17 22 1012.9 - 0.0
24/04:00pm 15.0 6.9 6.9 58 4.0 S 39 56 21 30 1012.7 - 0.0
24/03:45pm 15.2 6.3 6.8 57 4.1 S 43 59 23 32 1012.5 - 0.0
24/03:30pm 15.4 8.1 7.1 57 4.1 S 35 48 19 26 1012.5 - 0.0
24/03:15pm 15.4 6.0 7.0 57 4.2 S 46 56 25 30 1012.3 - 0.0
24/03:00pm 15.4 7.0 7.4 59 4.0 S 41 54 22 29 1012.2 - 0.0
24/02:45pm 15.5 7.9 7.5 59 4.0 S 37 50 20 27 1012.0 - 0.0
24/02:30pm 15.6 7.3 7.6 59 4.0 S 41 57 22 31 1012.0 - 0.0
24/02:15pm 15.8 7.1 7.7 58 4.1 S 43 57 23 31 1011.9 - 0.0
24/02:00pm 15.9 8.0 8.0 59 4.0 S 39 57 21 31 1011.9 - 0.0
24/01:45pm 15.9 8.1 8.1 60 4.0 S 39 59 21 32 1011.8 - 0.0
24/01:30pm 16.1 8.7 8.2 59 4.0 S 37 54 20 29 1011.7 - 0.0
24/01:15pm 16.3 8.2 8.5 60 4.0 S 41 57 22 31 1011.8 - 0.0
24/01:00pm 16.1 8.7 8.4 60 3.9 S 37 50 20 27 1011.8 - 0.0
24/12:45pm 15.6 7.1 8.4 62 3.7 S 43 57 23 31 1012.0 - 0.0
24/12:30pm 15.4 6.3 8.3 62 3.6 S 46 65 25 35 1012.0 - 0.0
24/12:15pm 15.6 7.9 8.7 63 3.5 S 39 54 21 29 1012.1 - 0.0
24/12:00pm 15.7 8.7 8.6 62 3.6 S 35 54 19 29 1012.2 - 0.0
24/11:45am 15.3 6.8 8.6 64 3.4 S 43 56 23 30 1012.2 - 0.0
24/11:30am 15.1 6.5 8.9 66 3.2 S 44 56 24 30 1012.3 - 0.0
24/11:15am 15.3 5.9 8.9 65 3.3 S 48 61 26 33 1012.2 - 0.0
24/11:00am 15.1 7.9 9.0 67 3.1 S 37 50 20 27 1012.3 - 0.0
24/10:45am 15.1 6.5 9.0 67 3.1 S 44 57 24 31 1012.4 - 0.0
24/10:30am 15.1 7.5 9.1 67 3.1 S 39 57 21 31 1012.4 - 0.0
24/10:15am 15.3 6.9 9.1 66 3.2 S 43 65 23 35 1012.3 - 0.0
24/10:00am 15.5 7.6 9.2 66 3.3 S 41 61 22 33 1012.2 - 0.0
24/09:45am 15.2 7.2 8.9 66 3.2 S 41 59 22 32 1012.1 - 0.0
24/09:30am 15.1 6.6 8.6 65 3.3 S 43 69 23 37 1012.0 - 0.0
24/09:15am 14.9 7.1 8.4 65 3.3 S 39 54 21 29 1011.9 - 0.0
24/09:00am 15.0 8.5 8.2 64 3.4 S 32 46 17 25 1011.6 - 0.2
24/08:45am 14.9 8.4 8.1 64 3.4 S 32 43 17 23 1011.5 - 0.2
24/08:30am 14.5 7.8 8.0 65 3.3 S 33 44 18 24 1011.5 - 0.2
24/08:15am 14.2 7.4 7.9 66 3.1 S 33 54 18 29 1011.4 - 0.2
24/08:00am 14.0 7.4 7.8 66 3.1 SSW 32 43 17 23 1011.4 - 0.2
24/07:45am 13.9 7.7 7.7 66 3.1 SSW 30 43 16 23 1011.3 - 0.2
24/07:30am 13.9 7.1 7.6 66 3.1 S 33 52 18 28 1011.1 - 0.2
24/07:15am 13.9 7.2 7.5 65 3.2 SSW 32 41 17 22 1010.8 - 0.2
24/07:00am 13.9 6.6 7.4 65 3.2 S 35 43 19 23 1010.5 - 0.2
24/06:45am 14.0 7.7 7.3 64 3.3 S 30 44 16 24 1010.3 - 0.2
24/06:30am 14.1 7.2 7.3 63 3.4 S 33 46 18 25 1010.2 - 0.2
24/06:15am 14.2 6.9 7.3 63 3.4 S 35 48 19 26 1010.0 - 0.2
24/06:00am 14.3 7.6 7.3 63 3.5 S 32 43 17 23 1009.7 - 0.2
24/05:45am 14.2 7.5 7.3 63 3.4 SSW 32 43 17 23 1009.5 - 0.2
24/05:30am 14.3 7.4 7.4 63 3.4 S 33 46 18 25 1009.4 - 0.2
24/05:15am 14.3 7.0 7.4 63 3.4 S 35 50 19 27 1009.3 - 0.2
24/05:00am 14.1 7.3 7.6 65 3.2 S 33 50 18 27 1009.2 - 0.2
24/04:45am 13.5 7.7 7.8 68 2.8 S 28 44 15 24 1009.0 - 0.2
24/04:30am 12.1 7.3 7.3 72 2.3 SSW 22 44 12 24 1009.0 - 0.2
24/04:15am 11.9 8.0 7.1 72 2.3 SW 17 24 9 13 1009.1 - 0.2
24/04:00am 11.8 7.5 7.0 72 2.3 SW 19 22 10 12 1009.1 - 0.2
24/03:45am 11.9 7.0 6.9 71 2.4 SW 22 26 12 14 1009.0 - 0.2
24/03:30am 12.0 6.4 7.0 71 2.4 SW 26 26 14 14 1009.0 - 0.2
24/03:15am 12.1 6.8 7.0 71 2.5 SW 24 28 13 15 1009.1 - 0.2
24/03:00am 12.1 5.7 7.0 71 2.5 SW 30 33 16 18 1009.1 - 0.2
24/02:45am 12.0 6.0 7.0 71 2.4 SW 28 35 15 19 1009.2 - 0.2
24/02:30am 12.0 6.4 7.0 71 2.4 SW 26 32 14 17 1009.2 - 0.2
24/02:15am 12.2 6.6 7.0 70 2.5 SW 26 30 14 16 1009.2 - 0.2
24/02:00am 12.3 6.7 7.0 70 2.6 SW 26 30 14 16 1009.2 - 0.2
24/01:45am 12.4 6.4 7.0 69 2.6 SW 28 33 15 18 1009.2 - 0.2
24/01:30am 12.5 6.5 7.1 69 2.6 SSW 28 35 15 19 1009.1 - 0.2
24/01:15am 12.6 6.3 7.2 69 2.6 SSW 30 37 16 20 1009.2 - 0.2
24/01:00am 12.5 6.5 7.2 70 2.6 SW 28 32 15 17 1009.1 - 0.2
24/12:45am 12.5 6.6 7.3 70 2.5 SW 28 35 15 19 1009.1 - 0.2
24/12:30am 12.5 7.0 7.4 71 2.5 SW 26 32 14 17 1009.1 - 0.2
24/12:15am 12.5 7.0 7.4 71 2.5 SW 26 32 14 17 1009.1 - 0.2
24/12:00am 12.5 7.0 7.4 71 2.5 SW 26 30 14 16 1009.1 - 0.2
 
Date/Time
EST
Temp
°C
App
Temp
°C
Dew
Point
°C
Rel
Hum
%
Delta-T
°C
Wind Press
QNH
hPa
Press
MSL
hPa
Rain since
9am
mm
Dir  Spd
km/h
Gust
km/h
Spd
kts
Gust
kts
23/11:45pm 12.4 6.5 7.5 72 2.4 SW 28 37 15 20 1009.0 - 0.2
23/11:30pm 12.4 6.9 7.5 72 2.4 SW 26 30 14 16 1009.0 - 0.2
23/11:15pm 12.4 6.5 7.5 72 2.4 SW 28 37 15 20 1008.9 - 0.2
23/11:00pm 12.3 6.4 7.4 72 2.4 SW 28 32 15 17 1008.9 - 0.2
23/10:45pm 12.4 6.9 7.4 71 2.4 SW 26 35 14 19 1009.1 - 0.2
23/10:30pm 12.4 6.9 7.4 71 2.4 SW 26 32 14 17 1009.1 - 0.2
23/10:15pm 12.4 6.5 7.4 71 2.4 SW 28 33 15 18 1009.2 - 0.2
23/10:00pm 12.4 7.2 7.3 71 2.5 SW 24 28 13 15 1009.1 - 0.2
23/09:45pm 12.5 6.9 7.3 70 2.5 SW 26 35 14 19 1009.1 - 0.2
23/09:30pm 12.6 7.0 7.3 70 2.6 SW 26 33 14 18 1009.0 - 0.2
23/09:15pm 12.6 7.0 7.3 70 2.6 SW 26 35 14 19 1009.0 - 0.2
23/09:00pm 12.7 7.1 7.3 69 2.6 SSW 26 32 14 17 1008.9 - 0.2
23/08:45pm 12.8 7.2 7.3 69 2.7 SW 26 32 14 17 1008.8 - 0.2
23/08:30pm 12.8 7.3 7.4 69 2.6 SW 26 32 14 17 1008.6 - 0.2
23/08:15pm 12.7 7.5 7.3 69 2.6 SW 24 32 13 17 1008.6 - 0.2
23/08:00pm 12.9 7.4 7.4 69 2.7 SW 26 30 14 16 1008.4 - 0.2
23/07:45pm 13.0 7.5 7.4 69 2.7 SW 26 32 14 17 1008.3 - 0.2
23/07:30pm 13.3 8.2 7.5 68 2.9 SW 24 32 13 17 1008.3 - 0.2
23/07:15pm 13.5 8.0 7.5 67 3.0 SW 26 30 14 16 1008.2 - 0.2
23/07:00pm 13.5 8.0 7.5 67 3.0 SW 26 32 14 17 1008.0 - 0.2
23/06:45pm 13.5 7.6 7.6 67 2.9 SW 28 35 15 19 1007.9 - 0.2
23/06:30pm 13.5 7.6 7.7 68 2.9 SW 28 37 15 20 1007.8 - 0.2
23/06:15pm 13.3 8.3 8.0 70 2.6 SW 24 33 13 18 1007.7 - 0.2
23/06:00pm 13.0 8.0 8.2 72 2.4 SW 24 33 13 18 1007.5 - 0.2
23/05:45pm 12.9 8.3 8.3 73 2.3 SW 22 26 12 14 1007.5 - 0.2
23/05:30pm 12.9 8.4 8.4 74 2.3 SW 22 26 12 14 1007.4 - 0.2
23/05:15pm 12.9 8.4 8.5 74 2.2 SW 22 22 12 12 1007.2 - 0.2
23/05:00pm 13.0 8.5 8.5 74 2.3 SW 22 24 12 13 1007.2 - 0.2
23/04:45pm 13.1 8.6 8.6 74 2.3 SW 22 28 12 15 1007.3 - 0.2
23/04:30pm 13.1 8.6 8.7 74 2.2 SW 22 26 12 14 1007.2 - 0.2
23/04:15pm 13.2 8.7 8.6 73 2.3 SW 22 26 12 14 1007.1 - 0.2
23/04:00pm 13.4 8.9 8.7 73 2.4 SW 22 28 12 15 1007.1 - 0.2
23/03:45pm 13.5 9.1 8.8 73 2.4 SW 22 26 12 14 1007.1 - 0.2
23/03:30pm 13.6 8.8 8.7 72 2.5 SW 24 32 13 17 1007.1 - 0.2
23/03:15pm 13.4 8.7 9.1 75 2.2 SW 24 32 13 17 1007.1 - 0.2
23/03:00pm 13.1 8.8 9.3 78 1.9 SW 22 28 12 15 1007.1 - 0.2
23/02:45pm 13.2 9.3 9.3 77 2.0 SW 20 28 11 15 1007.0 - 0.2
23/02:30pm 13.7 8.9 8.9 73 2.4 SW 24 35 13 19 1007.0 - 0.2
23/02:15pm 14.2 8.9 8.6 69 2.8 SW 26 35 14 19 1007.1 - 0.2
23/02:00pm 14.3 9.0 8.5 68 2.9 SW 26 35 14 19 1007.1 - 0.2
23/01:45pm 14.5 8.8 8.4 67 3.1 SW 28 37 15 20 1007.0 - 0.2
23/01:30pm 14.3 7.6 8.3 67 3.0 SW 33 41 18 22 1007.0 - 0.2
23/01:15pm 14.2 6.8 8.3 67 3.0 SW 37 46 20 25 1007.0 - 0.2
23/01:00pm 14.0 8.0 8.6 70 2.7 SW 30 41 16 22 1007.1 - 0.2
23/12:45pm 13.7 9.0 9.1 74 2.3 SW 24 37 13 20 1007.3 - 0.2
23/12:30pm 13.8 9.0 8.8 72 2.5 SW 24 32 13 17 1007.4 - 0.0
23/12:15pm 14.0 8.3 8.4 69 2.8 SW 28 41 15 22 1007.5 - 0.0
23/12:00pm 14.6 7.8 7.9 64 3.4 SW 33 41 18 22 1007.5 - 0.0
23/11:45am 14.9 9.5 8.2 64 3.4 SSW 26 37 14 20 1007.5 - 0.0
23/11:30am 14.9 7.8 7.9 63 3.5 SSW 35 46 19 25 1007.5 - 0.0
23/11:15am 15.4 9.2 7.9 61 3.8 SSW 30 41 16 22 1007.5 - 0.0

Latest Capital City Observations: Canberra | Sydney | Melbourne | Brisbane | Adelaide | Perth | Hobart | Darwin

Other formats

Comma delimited format used in spreadsheet applications
http://www.bom.gov.au/fwo/IDN60901/IDN60901.95757.axf

JavaScript Object Notation format (JSON) in row-major order
http://www.bom.gov.au/fwo/IDN60901/IDN60901.95757.json

Data quality

Most of these data are generated automatically and are frequently updated. Quality checks on data are not normally performed. It is possible for incorrect values to appear. Refer to information at About Latest Weather Observations and please check the disclaimer before using these data.